sensor_id;sensor_type;location;lat;lon;timestamp;temperature;humidity
66190;DHT22;52992;52.084;5.412;2022-08-25T00:01:30;27.80;56.80
66190;DHT22;52992;52.084;5.412;2022-08-25T00:03:59;27.70;56.70
66190;DHT22;52992;52.084;5.412;2022-08-25T00:06:27;27.70;56.90
66190;DHT22;52992;52.084;5.412;2022-08-25T00:08:54;27.70;56.90
66190;DHT22;52992;52.084;5.412;2022-08-25T00:11:28;27.70;56.80
66190;DHT22;52992;52.084;5.412;2022-08-25T00:13:58;27.60;56.80
66190;DHT22;52992;52.084;5.412;2022-08-25T00:16:27;27.60;56.90
66190;DHT22;52992;52.084;5.412;2022-08-25T00:18:57;27.60;56.80
66190;DHT22;52992;52.084;5.412;2022-08-25T00:21:25;27.50;56.90
66190;DHT22;52992;52.084;5.412;2022-08-25T00:23:52;27.50;56.90
66190;DHT22;52992;52.084;5.412;2022-08-25T00:26:19;27.50;57.10
66190;DHT22;52992;52.084;5.412;2022-08-25T00:28:46;27.40;57.10
66190;DHT22;52992;52.084;5.412;2022-08-25T00:31:16;27.40;57.30
66190;DHT22;52992;52.084;5.412;2022-08-25T00:33:45;27.40;57.50
66190;DHT22;52992;52.084;5.412;2022-08-25T00:36:13;27.40;57.50
66190;DHT22;52992;52.084;5.412;2022-08-25T00:38:43;27.40;57.50
66190;DHT22;52992;52.084;5.412;2022-08-25T00:41:13;27.30;57.50
66190;DHT22;52992;52.084;5.412;2022-08-25T00:46:08;27.30;57.60
66190;DHT22;52992;52.084;5.412;2022-08-25T00:48:37;27.20;57.60
66190;DHT22;52992;52.084;5.412;2022-08-25T00:51:06;27.20;57.50
66190;DHT22;52992;52.084;5.412;2022-08-25T00:53:33;27.20;57.70
66190;DHT22;52992;52.084;5.412;2022-08-25T00:56:00;27.20;57.60
66190;DHT22;52992;52.084;5.412;2022-08-25T00:58:28;27.10;57.70
66190;DHT22;52992;52.084;5.412;2022-08-25T01:00:57;27.10;57.70
66190;DHT22;52992;52.084;5.412;2022-08-25T01:03:28;27.10;57.60
66190;DHT22;52992;52.084;5.412;2022-08-25T01:06:01;27.10;57.70
66190;DHT22;52992;52.084;5.412;2022-08-25T01:08:30;27.00;57.90
66190;DHT22;52992;52.084;5.412;2022-08-25T01:11:04;27.00;58.00
66190;DHT22;52992;52.084;5.412;2022-08-25T01:13:37;27.00;58.10
66190;DHT22;52992;52.084;5.412;2022-08-25T01:16:04;27.00;58.00
66190;DHT22;52992;52.084;5.412;2022-08-25T01:18:47;26.90;57.30
66190;DHT22;52992;52.084;5.412;2022-08-25T01:21:15;26.90;57.30
66190;DHT22;52992;52.084;5.412;2022-08-25T01:23:44;26.80;57.40
66190;DHT22;52992;52.084;5.412;2022-08-25T01:28:58;26.80;57.60
66190;DHT22;52992;52.084;5.412;2022-08-25T01:31:44;26.70;57.70
66190;DHT22;52992;52.084;5.412;2022-08-25T01:34:11;26.70;57.70
66190;DHT22;52992;52.084;5.412;2022-08-25T01:36:39;26.70;57.60
66190;DHT22;52992;52.084;5.412;2022-08-25T01:39:06;26.60;57.80
66190;DHT22;52992;52.084;5.412;2022-08-25T01:44:02;26.50;58.00
66190;DHT22;52992;52.084;5.412;2022-08-25T01:46:31;26.50;57.90
66190;DHT22;52992;52.084;5.412;2022-08-25T01:49:00;26.50;57.90
66190;DHT22;52992;52.084;5.412;2022-08-25T01:51:39;26.50;57.90
66190;DHT22;52992;52.084;5.412;2022-08-25T01:54:07;26.40;58.00
66190;DHT22;52992;52.084;5.412;2022-08-25T01:56:34;26.40;58.10
66190;DHT22;52992;52.084;5.412;2022-08-25T01:59:01;26.40;58.00
66190;DHT22;52992;52.084;5.412;2022-08-25T02:01:29;26.40;58.10
66190;DHT22;52992;52.084;5.412;2022-08-25T02:03:56;26.40;58.00
66190;DHT22;52992;52.084;5.412;2022-08-25T02:06:27;26.40;58.10
66190;DHT22;52992;52.084;5.412;2022-08-25T02:08:58;26.40;58.10
66190;DHT22;52992;52.084;5.412;2022-08-25T02:11:26;26.30;58.10
66190;DHT22;52992;52.084;5.412;2022-08-25T02:13:53;26.30;58.00
66190;DHT22;52992;52.084;5.412;2022-08-25T02:16:27;26.20;57.90
66190;DHT22;52992;52.084;5.412;2022-08-25T02:18:55;26.20;57.90
66190;DHT22;52992;52.084;5.412;2022-08-25T02:21:22;26.20;57.90
66190;DHT22;52992;52.084;5.412;2022-08-25T02:23:49;26.20;58.00
66190;DHT22;52992;52.084;5.412;2022-08-25T02:26:17;26.30;58.00
66190;DHT22;52992;52.084;5.412;2022-08-25T02:28:46;26.30;58.10
66190;DHT22;52992;52.084;5.412;2022-08-25T02:31:14;26.20;58.20
66190;DHT22;52992;52.084;5.412;2022-08-25T02:33:42;26.30;58.20
66190;DHT22;52992;52.084;5.412;2022-08-25T02:36:09;26.30;58.20
66190;DHT22;52992;52.084;5.412;2022-08-25T02:38:36;26.20;58.30
66190;DHT22;52992;52.084;5.412;2022-08-25T02:41:15;26.20;58.40
66190;DHT22;52992;52.084;5.412;2022-08-25T02:43:43;26.20;58.30
66190;DHT22;52992;52.084;5.412;2022-08-25T02:46:11;26.30;58.20
66190;DHT22;52992;52.084;5.412;2022-08-25T02:48:38;26.30;58.20
66190;DHT22;52992;52.084;5.412;2022-08-25T02:51:06;26.20;58.30
66190;DHT22;52992;52.084;5.412;2022-08-25T02:53:35;26.20;58.30
66190;DHT22;52992;52.084;5.412;2022-08-25T02:56:04;26.30;58.40
66190;DHT22;52992;52.084;5.412;2022-08-25T02:58:31;26.20;58.20
66190;DHT22;52992;52.084;5.412;2022-08-25T03:00:57;26.20;58.30
66190;DHT22;52992;52.084;5.412;2022-08-25T03:03:25;26.20;58.20
66190;DHT22;52992;52.084;5.412;2022-08-25T03:05:52;26.30;58.20
66190;DHT22;52992;52.084;5.412;2022-08-25T03:08:23;26.20;58.40
66190;DHT22;52992;52.084;5.412;2022-08-25T03:10:50;26.20;58.40
66190;DHT22;52992;52.084;5.412;2022-08-25T03:13:17;26.20;58.50
66190;DHT22;52992;52.084;5.412;2022-08-25T03:15:44;26.20;58.60
66190;DHT22;52992;52.084;5.412;2022-08-25T03:18:14;26.20;59.20
66190;DHT22;52992;52.084;5.412;2022-08-25T03:20:42;26.20;58.50
66190;DHT22;52992;52.084;5.412;2022-08-25T03:23:10;26.20;58.50
66190;DHT22;52992;52.084;5.412;2022-08-25T03:25:39;26.20;58.50
66190;DHT22;52992;52.084;5.412;2022-08-25T03:28:27;26.10;58.50
66190;DHT22;52992;52.084;5.412;2022-08-25T03:30:56;26.20;58.40
66190;DHT22;52992;52.084;5.412;2022-08-25T03:33:27;26.10;58.50
66190;DHT22;52992;52.084;5.412;2022-08-25T03:35:54;26.10;58.50
66190;DHT22;52992;52.084;5.412;2022-08-25T03:38:23;26.10;58.50
66190;DHT22;52992;52.084;5.412;2022-08-25T03:40:51;26.10;58.50
66190;DHT22;52992;52.084;5.412;2022-08-25T03:43:18;26.10;58.60
66190;DHT22;52992;52.084;5.412;2022-08-25T03:45:46;26.00;58.70
66190;DHT22;52992;52.084;5.412;2022-08-25T03:48:14;26.00;58.50
66190;DHT22;52992;52.084;5.412;2022-08-25T03:50:47;25.90;58.00
66190;DHT22;52992;52.084;5.412;2022-08-25T03:53:18;25.90;57.70
66190;DHT22;52992;52.084;5.412;2022-08-25T03:55:44;25.90;57.70
66190;DHT22;52992;52.084;5.412;2022-08-25T03:58:11;25.80;57.50
66190;DHT22;52992;52.084;5.412;2022-08-25T04:00:38;25.80;57.60
66190;DHT22;52992;52.084;5.412;2022-08-25T04:03:06;25.80;57.90
66190;DHT22;52992;52.084;5.412;2022-08-25T04:05:33;25.80;57.70
66190;DHT22;52992;52.084;5.412;2022-08-25T04:08:00;25.70;57.80
66190;DHT22;52992;52.084;5.412;2022-08-25T04:10:28;25.70;57.80
66190;DHT22;52992;52.084;5.412;2022-08-25T04:12:55;25.70;57.80
66190;DHT22;52992;52.084;5.412;2022-08-25T04:15:22;25.70;57.80
66190;DHT22;52992;52.084;5.412;2022-08-25T04:17:56;25.60;57.80
66190;DHT22;52992;52.084;5.412;2022-08-25T04:20:24;25.60;57.70
66190;DHT22;52992;52.084;5.412;2022-08-25T04:22:51;25.50;57.80
66190;DHT22;52992;52.084;5.412;2022-08-25T04:25:18;25.50;57.90
66190;DHT22;52992;52.084;5.412;2022-08-25T04:27:44;25.50;57.90
66190;DHT22;52992;52.084;5.412;2022-08-25T04:30:12;25.50;57.90
66190;DHT22;52992;52.084;5.412;2022-08-25T04:32:39;25.40;57.90
66190;DHT22;52992;52.084;5.412;2022-08-25T04:35:06;25.40;57.80
66190;DHT22;52992;52.084;5.412;2022-08-25T04:37:33;25.40;57.80
66190;DHT22;52992;52.084;5.412;2022-08-25T04:40:00;25.30;57.80
66190;DHT22;52992;52.084;5.412;2022-08-25T04:42:27;25.30;57.90
66190;DHT22;52992;52.084;5.412;2022-08-25T04:44:54;25.30;58.00
66190;DHT22;52992;52.084;5.412;2022-08-25T04:47:21;25.30;58.10
66190;DHT22;52992;52.084;5.412;2022-08-25T04:49:48;25.30;58.10
66190;DHT22;52992;52.084;5.412;2022-08-25T04:52:15;25.20;58.10
66190;DHT22;52992;52.084;5.412;2022-08-25T04:54:42;25.20;58.10
66190;DHT22;52992;52.084;5.412;2022-08-25T04:57:10;25.20;58.00
66190;DHT22;52992;52.084;5.412;2022-08-25T04:59:36;25.20;58.00
66190;DHT22;52992;52.084;5.412;2022-08-25T05:02:04;25.20;58.00
66190;DHT22;52992;52.084;5.412;2022-08-25T05:04:34;25.10;57.80
66190;DHT22;52992;52.084;5.412;2022-08-25T05:07:02;25.10;57.90
66190;DHT22;52992;52.084;5.412;2022-08-25T05:09:29;25.10;57.90
66190;DHT22;52992;52.084;5.412;2022-08-25T05:11:59;25.10;58.00
66190;DHT22;52992;52.084;5.412;2022-08-25T05:14:27;25.10;58.00
66190;DHT22;52992;52.084;5.412;2022-08-25T05:16:55;25.20;58.10
66190;DHT22;52992;52.084;5.412;2022-08-25T05:19:22;25.20;58.00
66190;DHT22;52992;52.084;5.412;2022-08-25T05:21:52;25.10;57.60
66190;DHT22;52992;52.084;5.412;2022-08-25T05:24:20;25.20;57.40
66190;DHT22;52992;52.084;5.412;2022-08-25T05:26:47;25.20;57.60
66190;DHT22;52992;52.084;5.412;2022-08-25T05:29:14;25.20;57.70
66190;DHT22;52992;52.084;5.412;2022-08-25T05:31:42;25.20;57.80
66190;DHT22;52992;52.084;5.412;2022-08-25T05:34:16;25.30;57.80
66190;DHT22;52992;52.084;5.412;2022-08-25T05:36:44;25.30;57.80
66190;DHT22;52992;52.084;5.412;2022-08-25T05:39:11;25.30;57.90
66190;DHT22;52992;52.084;5.412;2022-08-25T05:41:38;25.40;58.00
66190;DHT22;52992;52.084;5.412;2022-08-25T05:44:05;25.40;58.10
66190;DHT22;52992;52.084;5.412;2022-08-25T05:46:32;25.50;58.10
66190;DHT22;52992;52.084;5.412;2022-08-25T05:48:59;25.50;58.20
66190;DHT22;52992;52.084;5.412;2022-08-25T05:51:26;25.60;57.90
66190;DHT22;52992;52.084;5.412;2022-08-25T05:53:52;25.60;57.90
66190;DHT22;52992;52.084;5.412;2022-08-25T05:56:20;25.60;58.00
66190;DHT22;52992;52.084;5.412;2022-08-25T05:58:47;25.70;58.10
66190;DHT22;52992;52.084;5.412;2022-08-25T06:01:22;25.70;58.20
66190;DHT22;52992;52.084;5.412;2022-08-25T06:04:10;25.70;58.30
66190;DHT22;52992;52.084;5.412;2022-08-25T06:06:38;25.80;58.30
66190;DHT22;52992;52.084;5.412;2022-08-25T06:09:05;25.80;58.40
66190;DHT22;52992;52.084;5.412;2022-08-25T06:11:35;25.80;58.30
66190;DHT22;52992;52.084;5.412;2022-08-25T06:14:03;25.90;58.40
66190;DHT22;52992;52.084;5.412;2022-08-25T06:16:30;26.00;58.80
66190;DHT22;52992;52.084;5.412;2022-08-25T06:18:57;26.10;57.80
66190;DHT22;52992;52.084;5.412;2022-08-25T06:21:24;26.10;57.50
66190;DHT22;52992;52.084;5.412;2022-08-25T06:23:51;26.20;56.70
66190;DHT22;52992;52.084;5.412;2022-08-25T06:26:18;26.20;56.10
66190;DHT22;52992;52.084;5.412;2022-08-25T06:28:50;26.30;55.90
66190;DHT22;52992;52.084;5.412;2022-08-25T06:31:18;26.40;55.00
66190;DHT22;52992;52.084;5.412;2022-08-25T06:33:46;26.40;54.60
66190;DHT22;52992;52.084;5.412;2022-08-25T06:36:13;26.50;54.00
66190;DHT22;52992;52.084;5.412;2022-08-25T06:38:41;26.70;53.10
66190;DHT22;52992;52.084;5.412;2022-08-25T06:41:08;26.80;53.10
66190;DHT22;52992;52.084;5.412;2022-08-25T06:43:39;27.00;52.50
66190;DHT22;52992;52.084;5.412;2022-08-25T06:46:20;27.10;52.10
66190;DHT22;52992;52.084;5.412;2022-08-25T06:49:02;27.30;51.90
66190;DHT22;52992;52.084;5.412;2022-08-25T06:51:29;27.40;50.00
66190;DHT22;52992;52.084;5.412;2022-08-25T06:53:55;27.50;49.30
66190;DHT22;52992;52.084;5.412;2022-08-25T06:56:22;27.60;48.80
66190;DHT22;52992;52.084;5.412;2022-08-25T06:58:49;27.60;48.20
66190;DHT22;52992;52.084;5.412;2022-08-25T07:01:22;27.70;48.20
66190;DHT22;52992;52.084;5.412;2022-08-25T07:03:55;27.70;49.10
66190;DHT22;52992;52.084;5.412;2022-08-25T07:06:24;27.70;48.70
66190;DHT22;52992;52.084;5.412;2022-08-25T07:08:51;27.90;49.50
66190;DHT22;52992;52.084;5.412;2022-08-25T07:11:18;28.00;48.90
66190;DHT22;52992;52.084;5.412;2022-08-25T07:13:49;28.00;47.90
66190;DHT22;52992;52.084;5.412;2022-08-25T07:16:18;28.10;49.70
66190;DHT22;52992;52.084;5.412;2022-08-25T07:18:47;28.20;48.60
66190;DHT22;52992;52.084;5.412;2022-08-25T07:21:14;28.30;47.50
66190;DHT22;52992;52.084;5.412;2022-08-25T07:23:41;28.40;48.30
66190;DHT22;52992;52.084;5.412;2022-08-25T07:26:11;28.40;48.10
66190;DHT22;52992;52.084;5.412;2022-08-25T07:28:58;28.50;47.10
66190;DHT22;52992;52.084;5.412;2022-08-25T07:31:25;28.60;46.40
66190;DHT22;52992;52.084;5.412;2022-08-25T07:33:55;28.70;45.60
66190;DHT22;52992;52.084;5.412;2022-08-25T07:36:42;28.70;46.10
66190;DHT22;52992;52.084;5.412;2022-08-25T07:39:09;28.70;45.90
66190;DHT22;52992;52.084;5.412;2022-08-25T07:41:38;28.70;45.80
66190;DHT22;52992;52.084;5.412;2022-08-25T07:44:05;28.70;44.80
66190;DHT22;52992;52.084;5.412;2022-08-25T07:46:33;28.70;45.30
66190;DHT22;52992;52.084;5.412;2022-08-25T07:48:59;28.80;44.50
66190;DHT22;52992;52.084;5.412;2022-08-25T07:51:27;28.80;45.20
66190;DHT22;52992;52.084;5.412;2022-08-25T07:53:54;28.90;45.40
66190;DHT22;52992;52.084;5.412;2022-08-25T07:56:21;29.00;46.80
66190;DHT22;52992;52.084;5.412;2022-08-25T07:58:48;29.20;45.70
66190;DHT22;52992;52.084;5.412;2022-08-25T08:01:23;29.40;46.10
66190;DHT22;52992;52.084;5.412;2022-08-25T08:03:51;29.50;44.70
66190;DHT22;52992;52.084;5.412;2022-08-25T08:06:22;29.60;44.00
66190;DHT22;52992;52.084;5.412;2022-08-25T08:08:51;29.60;43.80
66190;DHT22;52992;52.084;5.412;2022-08-25T08:11:26;29.70;43.70
66190;DHT22;52992;52.084;5.412;2022-08-25T08:13:55;29.80;43.80
66190;DHT22;52992;52.084;5.412;2022-08-25T08:16:24;29.90;43.70
66190;DHT22;52992;52.084;5.412;2022-08-25T08:18:51;30.00;45.00
66190;DHT22;52992;52.084;5.412;2022-08-25T08:21:27;30.20;44.80
66190;DHT22;52992;52.084;5.412;2022-08-25T08:23:55;30.20;44.90
66190;DHT22;52992;52.084;5.412;2022-08-25T08:26:25;30.30;43.90
66190;DHT22;52992;52.084;5.412;2022-08-25T08:29:13;30.40;43.70
66190;DHT22;52992;52.084;5.412;2022-08-25T08:31:41;30.50;44.40
66190;DHT22;52992;52.084;5.412;2022-08-25T08:34:14;30.60;43.30
66190;DHT22;52992;52.084;5.412;2022-08-25T08:36:41;30.60;43.90
66190;DHT22;52992;52.084;5.412;2022-08-25T08:39:10;30.70;43.00
66190;DHT22;52992;52.084;5.412;2022-08-25T08:41:54;30.70;42.10
66190;DHT22;52992;52.084;5.412;2022-08-25T08:50:42;30.90;43.00
66190;DHT22;52992;52.084;5.412;2022-08-25T08:53:31;30.90;40.90
66190;DHT22;52992;52.084;5.412;2022-08-25T08:56:09;31.00;41.70
66190;DHT22;52992;52.084;5.412;2022-08-25T08:59:02;31.10;41.80
66190;DHT22;52992;52.084;5.412;2022-08-25T09:01:43;31.10;42.40
66190;DHT22;52992;52.084;5.412;2022-08-25T09:04:36;31.30;42.60
66190;DHT22;52992;52.084;5.412;2022-08-25T09:07:13;31.50;43.40
66190;DHT22;52992;52.084;5.412;2022-08-25T09:09:42;31.60;42.50
66190;DHT22;52992;52.084;5.412;2022-08-25T09:17:44;31.80;40.10
66190;DHT22;52992;52.084;5.412;2022-08-25T09:20:39;32.00;42.40
66190;DHT22;52992;52.084;5.412;2022-08-25T09:23:23;32.10;43.40
66190;DHT22;52992;52.084;5.412;2022-08-25T09:26:21;32.30;44.50
66190;DHT22;52992;52.084;5.412;2022-08-25T09:28:53;32.40;45.00
66190;DHT22;52992;52.084;5.412;2022-08-25T09:31:45;32.60;43.30
66190;DHT22;52992;52.084;5.412;2022-08-25T09:34:20;32.70;41.40
66190;DHT22;52992;52.084;5.412;2022-08-25T09:36:48;32.80;40.80
66190;DHT22;52992;52.084;5.412;2022-08-25T09:39:19;32.90;41.30
66190;DHT22;52992;52.084;5.412;2022-08-25T09:41:52;33.10;42.40
66190;DHT22;52992;52.084;5.412;2022-08-25T09:44:24;33.30;43.30
66190;DHT22;52992;52.084;5.412;2022-08-25T09:47:20;33.50;43.20
66190;DHT22;52992;52.084;5.412;2022-08-25T09:49:57;33.70;41.90
66190;DHT22;52992;52.084;5.412;2022-08-25T09:52:36;34.00;39.70
66190;DHT22;52992;52.084;5.412;2022-08-25T09:57:36;34.40;38.80
66190;DHT22;52992;52.084;5.412;2022-08-25T10:03:10;34.80;37.20
66190;DHT22;52992;52.084;5.412;2022-08-25T10:05:56;35.00;38.60
66190;DHT22;52992;52.084;5.412;2022-08-25T10:11:14;35.20;37.90
66190;DHT22;52992;52.084;5.412;2022-08-25T10:16:43;35.40;36.40
66190;DHT22;52992;52.084;5.412;2022-08-25T10:24:42;35.60;35.50
66190;DHT22;52992;52.084;5.412;2022-08-25T10:33:03;35.80;35.90
66190;DHT22;52992;52.084;5.412;2022-08-25T10:42:02;36.50;33.50
66190;DHT22;52992;52.084;5.412;2022-08-25T10:45:08;36.40;33.40
66190;DHT22;52992;52.084;5.412;2022-08-25T10:53:27;36.20;33.80
66190;DHT22;52992;52.084;5.412;2022-08-25T10:56:11;36.20;34.80
66190;DHT22;52992;52.084;5.412;2022-08-25T11:01:31;36.20;33.10
66190;DHT22;52992;52.084;5.412;2022-08-25T11:04:37;36.20;33.40
66190;DHT22;52992;52.084;5.412;2022-08-25T11:07:32;36.50;31.90
66190;DHT22;52992;52.084;5.412;2022-08-25T11:10:10;37.00;32.20
66190;DHT22;52992;52.084;5.412;2022-08-25T11:15:14;38.10;28.50
66190;DHT22;52992;52.084;5.412;2022-08-25T11:20:19;38.40;28.20
66190;DHT22;52992;52.084;5.412;2022-08-25T11:25:43;38.30;29.20
66190;DHT22;52992;52.084;5.412;2022-08-25T11:28:38;38.30;29.90
66190;DHT22;52992;52.084;5.412;2022-08-25T11:31:01;38.30;28.70
66190;DHT22;52992;52.084;5.412;2022-08-25T11:33:31;38.40;29.70
66190;DHT22;52992;52.084;5.412;2022-08-25T11:36:09;38.40;28.60
66190;DHT22;52992;52.084;5.412;2022-08-25T11:50:29;39.10;27.20
66190;DHT22;52992;52.084;5.412;2022-08-25T11:53:17;39.30;27.20
66190;DHT22;52992;52.084;5.412;2022-08-25T11:55:54;39.50;28.00
66190;DHT22;52992;52.084;5.412;2022-08-25T11:58:43;39.60;28.40
66190;DHT22;52992;52.084;5.412;2022-08-25T12:01:57;39.70;27.50
66190;DHT22;52992;52.084;5.412;2022-08-25T12:10:20;39.60;27.70
66190;DHT22;52992;52.084;5.412;2022-08-25T12:15:24;41.00;27.90
66190;DHT22;52992;52.084;5.412;2022-08-25T12:18:50;41.20;26.00
66190;DHT22;52992;52.084;5.412;2022-08-25T12:25:59;40.80;26.40
66190;DHT22;52992;52.084;5.412;2022-08-25T12:28:46;40.80;25.90
66190;DHT22;52992;52.084;5.412;2022-08-25T12:31:23;42.00;25.30
66190;DHT22;52992;52.084;5.412;2022-08-25T12:33:59;43.60;24.00
66190;DHT22;52992;52.084;5.412;2022-08-25T12:36:31;44.60;22.20
66190;DHT22;52992;52.084;5.412;2022-08-25T12:39:19;45.70;21.80
66190;DHT22;52992;52.084;5.412;2022-08-25T12:42:00;46.80;20.60
66190;DHT22;52992;52.084;5.412;2022-08-25T12:44:39;47.70;20.80
66190;DHT22;52992;52.084;5.412;2022-08-25T12:49:49;48.90;19.20
66190;DHT22;52992;52.084;5.412;2022-08-25T12:52:19;49.20;18.30
66190;DHT22;52992;52.084;5.412;2022-08-25T12:54:54;49.40;19.50
66190;DHT22;52992;52.084;5.412;2022-08-25T12:57:42;49.60;19.10
66190;DHT22;52992;52.084;5.412;2022-08-25T13:00:22;50.10;18.60
66190;DHT22;52992;52.084;5.412;2022-08-25T13:05:58;51.70;19.30
66190;DHT22;52992;52.084;5.412;2022-08-25T13:11:20;52.70;19.00
66190;DHT22;52992;52.084;5.412;2022-08-25T13:14:04;52.90;17.90
66190;DHT22;52992;52.084;5.412;2022-08-25T13:16:31;52.70;17.40
66190;DHT22;52992;52.084;5.412;2022-08-25T13:19:04;52.40;18.70
66190;DHT22;52992;52.084;5.412;2022-08-25T13:21:36;51.80;19.00
66190;DHT22;52992;52.084;5.412;2022-08-25T13:24:27;51.40;19.20
66190;DHT22;52992;52.084;5.412;2022-08-25T13:27:07;51.00;18.90
66190;DHT22;52992;52.084;5.412;2022-08-25T13:29:49;50.90;17.80
66190;DHT22;52992;52.084;5.412;2022-08-25T13:32:25;50.80;17.80
66190;DHT22;52992;52.084;5.412;2022-08-25T13:35:14;50.80;18.90
66190;DHT22;52992;52.084;5.412;2022-08-25T13:37:45;50.50;19.10
66190;DHT22;52992;52.084;5.412;2022-08-25T13:40:13;50.40;18.90
66190;DHT22;52992;52.084;5.412;2022-08-25T13:42:48;50.10;18.80
66190;DHT22;52992;52.084;5.412;2022-08-25T13:45:27;49.50;18.90
66190;DHT22;52992;52.084;5.412;2022-08-25T13:47:57;48.60;19.40
66190;DHT22;52992;52.084;5.412;2022-08-25T13:58:20;44.20;22.00
66190;DHT22;52992;52.084;5.412;2022-08-25T14:01:24;43.00;21.40
66190;DHT22;52992;52.084;5.412;2022-08-25T14:04:43;42.20;23.80
66190;DHT22;52992;52.084;5.412;2022-08-25T14:10:07;41.40;25.30
66190;DHT22;52992;52.084;5.412;2022-08-25T14:15:27;42.30;25.90
66190;DHT22;52992;52.084;5.412;2022-08-25T14:18:12;42.70;25.60
66190;DHT22;52992;52.084;5.412;2022-08-25T14:20:49;42.60;24.10
66190;DHT22;52992;52.084;5.412;2022-08-25T14:23:23;42.30;23.60
66190;DHT22;52992;52.084;5.412;2022-08-25T14:25:52;41.80;24.80
66190;DHT22;52992;52.084;5.412;2022-08-25T14:28:22;41.10;24.80
66190;DHT22;52992;52.084;5.412;2022-08-25T14:31:04;40.40;26.00
66190;DHT22;52992;52.084;5.412;2022-08-25T14:33:40;39.70;26.30
66190;DHT22;52992;52.084;5.412;2022-08-25T14:36:08;39.30;25.90
66190;DHT22;52992;52.084;5.412;2022-08-25T14:38:35;39.10;27.40
66190;DHT22;52992;52.084;5.412;2022-08-25T14:41:06;38.90;28.70
66190;DHT22;52992;52.084;5.412;2022-08-25T14:43:38;38.80;27.20
66190;DHT22;52992;52.084;5.412;2022-08-25T14:46:17;38.60;28.40
66190;DHT22;52992;52.084;5.412;2022-08-25T14:48:47;38.30;29.30
66190;DHT22;52992;52.084;5.412;2022-08-25T14:51:15;38.10;29.00
66190;DHT22;52992;52.084;5.412;2022-08-25T14:53:42;37.90;29.10
66190;DHT22;52992;52.084;5.412;2022-08-25T14:56:09;37.80;31.00
66190;DHT22;52992;52.084;5.412;2022-08-25T14:58:39;37.60;29.80
66190;DHT22;52992;52.084;5.412;2022-08-25T15:01:18;37.50;29.50
66190;DHT22;52992;52.084;5.412;2022-08-25T15:04:02;37.30;29.20
66190;DHT22;52992;52.084;5.412;2022-08-25T15:06:30;37.10;29.40
66190;DHT22;52992;52.084;5.412;2022-08-25T15:08:58;36.90;29.30
66190;DHT22;52992;52.084;5.412;2022-08-25T15:11:38;36.80;28.00
66190;DHT22;52992;52.084;5.412;2022-08-25T15:14:08;36.70;30.40
66190;DHT22;52992;52.084;5.412;2022-08-25T15:16:39;36.60;27.90
66190;DHT22;52992;52.084;5.412;2022-08-25T15:19:10;36.50;28.90
66190;DHT22;52992;52.084;5.412;2022-08-25T15:21:42;36.40;33.00
66190;DHT22;52992;52.084;5.412;2022-08-25T15:24:10;36.40;33.30
66190;DHT22;52992;52.084;5.412;2022-08-25T15:26:41;36.30;30.90
66190;DHT22;52992;52.084;5.412;2022-08-25T15:29:10;36.20;30.00
66190;DHT22;52992;52.084;5.412;2022-08-25T15:31:37;36.20;30.60
66190;DHT22;52992;52.084;5.412;2022-08-25T15:34:07;36.10;29.80
66190;DHT22;52992;52.084;5.412;2022-08-25T15:36:38;36.00;29.40
66190;DHT22;52992;52.084;5.412;2022-08-25T15:39:07;35.90;30.30
66190;DHT22;52992;52.084;5.412;2022-08-25T15:41:35;35.90;28.20
66190;DHT22;52992;52.084;5.412;2022-08-25T15:44:05;35.80;26.90
66190;DHT22;52992;52.084;5.412;2022-08-25T15:46:34;35.70;28.60
66190;DHT22;52992;52.084;5.412;2022-08-25T15:49:02;35.70;28.30
66190;DHT22;52992;52.084;5.412;2022-08-25T15:51:29;35.70;28.10
66190;DHT22;52992;52.084;5.412;2022-08-25T15:53:56;35.60;29.40
66190;DHT22;52992;52.084;5.412;2022-08-25T15:56:24;35.50;28.60
66190;DHT22;52992;52.084;5.412;2022-08-25T15:58:53;35.50;28.00
66190;DHT22;52992;52.084;5.412;2022-08-25T16:01:24;35.40;29.10
66190;DHT22;52992;52.084;5.412;2022-08-25T16:03:52;35.50;28.50
66190;DHT22;52992;52.084;5.412;2022-08-25T16:06:19;35.40;29.00
66190;DHT22;52992;52.084;5.412;2022-08-25T16:08:46;35.40;29.10
66190;DHT22;52992;52.084;5.412;2022-08-25T16:11:20;35.40;29.10
66190;DHT22;52992;52.084;5.412;2022-08-25T16:13:48;35.30;30.00
66190;DHT22;52992;52.084;5.412;2022-08-25T16:16:16;35.30;29.30
66190;DHT22;52992;52.084;5.412;2022-08-25T16:18:44;35.30;29.70
66190;DHT22;52992;52.084;5.412;2022-08-25T16:21:13;35.30;29.90
66190;DHT22;52992;52.084;5.412;2022-08-25T16:23:40;35.20;29.30
66190;DHT22;52992;52.084;5.412;2022-08-25T16:26:09;35.20;29.80
66190;DHT22;52992;52.084;5.412;2022-08-25T16:28:40;35.20;29.30
66190;DHT22;52992;52.084;5.412;2022-08-25T16:31:11;35.20;28.80
66190;DHT22;52992;52.084;5.412;2022-08-25T16:33:39;35.20;31.30
66190;DHT22;52992;52.084;5.412;2022-08-25T16:36:14;35.20;29.50
66190;DHT22;52992;52.084;5.412;2022-08-25T16:38:43;35.10;28.40
66190;DHT22;52992;52.084;5.412;2022-08-25T16:41:20;35.10;31.10
66190;DHT22;52992;52.084;5.412;2022-08-25T16:43:48;35.20;33.10
66190;DHT22;52992;52.084;5.412;2022-08-25T16:46:18;35.20;33.20
66190;DHT22;52992;52.084;5.412;2022-08-25T16:48:46;35.10;32.60
66190;DHT22;52992;52.084;5.412;2022-08-25T16:51:16;35.10;31.60
66190;DHT22;52992;52.084;5.412;2022-08-25T16:53:48;35.10;34.10
66190;DHT22;52992;52.084;5.412;2022-08-25T16:56:35;35.00;34.90
66190;DHT22;52992;52.084;5.412;2022-08-25T16:59:04;34.90;35.10
66190;DHT22;52992;52.084;5.412;2022-08-25T17:01:33;34.80;35.70
66190;DHT22;52992;52.084;5.412;2022-08-25T17:04:01;34.80;34.00
66190;DHT22;52992;52.084;5.412;2022-08-25T17:06:33;34.70;35.30
66190;DHT22;52992;52.084;5.412;2022-08-25T17:09:00;34.60;35.20
66190;DHT22;52992;52.084;5.412;2022-08-25T17:11:31;34.50;35.20
66190;DHT22;52992;52.084;5.412;2022-08-25T17:14:03;34.50;35.00
66190;DHT22;52992;52.084;5.412;2022-08-25T17:16:36;34.50;34.20
66190;DHT22;52992;52.084;5.412;2022-08-25T17:19:06;34.40;34.50
66190;DHT22;52992;52.084;5.412;2022-08-25T17:21:40;34.40;33.40
66190;DHT22;52992;52.084;5.412;2022-08-25T17:24:11;34.30;33.40
66190;DHT22;52992;52.084;5.412;2022-08-25T17:26:39;34.30;33.70
66190;DHT22;52992;52.084;5.412;2022-08-25T17:29:07;34.20;34.10
66190;DHT22;52992;52.084;5.412;2022-08-25T17:31:34;34.10;34.80
66190;DHT22;52992;52.084;5.412;2022-08-25T17:34:09;34.10;34.00
66190;DHT22;52992;52.084;5.412;2022-08-25T17:36:42;34.00;34.10
66190;DHT22;52992;52.084;5.412;2022-08-25T17:39:10;34.00;34.60
66190;DHT22;52992;52.084;5.412;2022-08-25T17:41:38;33.90;33.00
66190;DHT22;52992;52.084;5.412;2022-08-25T17:44:06;33.80;33.30
66190;DHT22;52992;52.084;5.412;2022-08-25T17:46:33;33.70;33.90
66190;DHT22;52992;52.084;5.412;2022-08-25T17:49:00;33.60;34.40
66190;DHT22;52992;52.084;5.412;2022-08-25T17:51:27;33.60;34.70